sensor_id;sensor_type;location;lat;lon;timestamp;P1;durP1;ratioP1;P2;durP2;ratioP2
10339;SDS011;5215;48.676;9.022;2022-12-07T00:02:19;2.90;;;2.47;;
10339;SDS011;5215;48.676;9.022;2022-12-07T00:04:46;2.63;;;1.77;;
10339;SDS011;5215;48.676;9.022;2022-12-07T00:07:14;3.43;;;2.17;;
10339;SDS011;5215;48.676;9.022;2022-12-07T00:09:42;3.00;;;2.23;;
10339;SDS011;5215;48.676;9.022;2022-12-07T00:12:08;3.37;;;2.13;;
10339;SDS011;5215;48.676;9.022;2022-12-07T00:14:34;4.50;;;2.43;;
10339;SDS011;5215;48.676;9.022;2022-12-07T00:17:01;2.37;;;1.93;;
10339;SDS011;5215;48.676;9.022;2022-12-07T00:19:27;1.97;;;1.67;;
10339;SDS011;5215;48.676;9.022;2022-12-07T00:21:53;4.07;;;2.50;;
10339;SDS011;5215;48.676;9.022;2022-12-07T00:24:20;2.90;;;2.07;;
10339;SDS011;5215;48.676;9.022;2022-12-07T00:26:47;3.10;;;2.10;;
10339;SDS011;5215;48.676;9.022;2022-12-07T00:29:15;2.87;;;2.17;;
10339;SDS011;5215;48.676;9.022;2022-12-07T00:31:41;2.73;;;1.73;;
10339;SDS011;5215;48.676;9.022;2022-12-07T00:34:11;3.00;;;2.30;;
10339;SDS011;5215;48.676;9.022;2022-12-07T00:36:38;2.60;;;2.00;;
10339;SDS011;5215;48.676;9.022;2022-12-07T00:39:04;2.43;;;2.17;;
10339;SDS011;5215;48.676;9.022;2022-12-07T00:41:30;5.50;;;2.20;;
10339;SDS011;5215;48.676;9.022;2022-12-07T00:43:58;1.97;;;1.73;;
10339;SDS011;5215;48.676;9.022;2022-12-07T00:46:24;2.43;;;1.63;;
10339;SDS011;5215;48.676;9.022;2022-12-07T00:48:51;4.20;;;2.57;;
10339;SDS011;5215;48.676;9.022;2022-12-07T00:51:18;2.53;;;1.90;;
10339;SDS011;5215;48.676;9.022;2022-12-07T00:53:45;3.80;;;2.30;;
10339;SDS011;5215;48.676;9.022;2022-12-07T00:56:12;2.33;;;1.77;;
10339;SDS011;5215;48.676;9.022;2022-12-07T00:58:39;4.10;;;2.53;;
10339;SDS011;5215;48.676;9.022;2022-12-07T01:01:07;2.90;;;2.00;;
10339;SDS011;5215;48.676;9.022;2022-12-07T01:03:34;2.87;;;2.03;;
10339;SDS011;5215;48.676;9.022;2022-12-07T01:06:00;2.20;;;1.87;;
10339;SDS011;5215;48.676;9.022;2022-12-07T01:08:27;2.27;;;1.90;;
10339;SDS011;5215;48.676;9.022;2022-12-07T01:10:57;2.27;;;1.50;;
10339;SDS011;5215;48.676;9.022;2022-12-07T01:13:24;2.10;;;1.73;;
10339;SDS011;5215;48.676;9.022;2022-12-07T01:15:50;2.10;;;1.67;;
10339;SDS011;5215;48.676;9.022;2022-12-07T01:18:18;3.23;;;2.80;;
10339;SDS011;5215;48.676;9.022;2022-12-07T01:20:44;4.37;;;2.60;;
10339;SDS011;5215;48.676;9.022;2022-12-07T01:23:10;3.03;;;2.13;;
10339;SDS011;5215;48.676;9.022;2022-12-07T01:25:37;4.20;;;2.73;;
10339;SDS011;5215;48.676;9.022;2022-12-07T01:28:03;4.13;;;2.37;;
10339;SDS011;5215;48.676;9.022;2022-12-07T01:30:29;3.50;;;2.33;;
10339;SDS011;5215;48.676;9.022;2022-12-07T01:32:56;2.93;;;2.53;;
10339;SDS011;5215;48.676;9.022;2022-12-07T01:35:26;3.63;;;2.43;;
10339;SDS011;5215;48.676;9.022;2022-12-07T01:37:53;4.87;;;2.70;;
10339;SDS011;5215;48.676;9.022;2022-12-07T01:40:19;2.47;;;2.27;;
10339;SDS011;5215;48.676;9.022;2022-12-07T01:42:45;3.93;;;2.73;;
10339;SDS011;5215;48.676;9.022;2022-12-07T01:45:31;3.87;;;2.73;;
10339;SDS011;5215;48.676;9.022;2022-12-07T01:48:01;4.47;;;3.13;;
10339;SDS011;5215;48.676;9.022;2022-12-07T01:50:29;3.17;;;2.37;;
10339;SDS011;5215;48.676;9.022;2022-12-07T01:52:57;4.40;;;2.83;;
10339;SDS011;5215;48.676;9.022;2022-12-07T01:55:27;3.43;;;2.90;;
10339;SDS011;5215;48.676;9.022;2022-12-07T01:57:54;3.90;;;2.93;;
10339;SDS011;5215;48.676;9.022;2022-12-07T02:00:20;2.77;;;2.17;;
10339;SDS011;5215;48.676;9.022;2022-12-07T02:02:47;3.47;;;2.70;;
10339;SDS011;5215;48.676;9.022;2022-12-07T02:05:14;3.27;;;2.07;;
10339;SDS011;5215;48.676;9.022;2022-12-07T02:07:42;3.13;;;2.70;;
10339;SDS011;5215;48.676;9.022;2022-12-07T02:10:12;5.13;;;3.03;;
10339;SDS011;5215;48.676;9.022;2022-12-07T02:12:39;4.03;;;2.40;;
10339;SDS011;5215;48.676;9.022;2022-12-07T02:15:05;3.60;;;2.20;;
10339;SDS011;5215;48.676;9.022;2022-12-07T02:17:34;3.47;;;2.40;;
10339;SDS011;5215;48.676;9.022;2022-12-07T02:20:12;4.10;;;2.63;;
10339;SDS011;5215;48.676;9.022;2022-12-07T02:22:51;3.33;;;2.00;;
10339;SDS011;5215;48.676;9.022;2022-12-07T02:25:22;4.17;;;2.50;;
10339;SDS011;5215;48.676;9.022;2022-12-07T02:27:51;4.93;;;2.83;;
10339;SDS011;5215;48.676;9.022;2022-12-07T02:30:20;3.57;;;2.63;;
10339;SDS011;5215;48.676;9.022;2022-12-07T02:32:49;3.80;;;2.57;;
10339;SDS011;5215;48.676;9.022;2022-12-07T02:35:18;5.07;;;3.10;;
10339;SDS011;5215;48.676;9.022;2022-12-07T02:37:48;4.17;;;2.70;;
10339;SDS011;5215;48.676;9.022;2022-12-07T02:40:19;4.67;;;2.83;;
10339;SDS011;5215;48.676;9.022;2022-12-07T02:42:49;3.00;;;2.70;;
10339;SDS011;5215;48.676;9.022;2022-12-07T02:45:17;3.20;;;2.40;;
10339;SDS011;5215;48.676;9.022;2022-12-07T02:47:45;3.90;;;2.60;;
10339;SDS011;5215;48.676;9.022;2022-12-07T02:50:14;4.97;;;2.90;;
10339;SDS011;5215;48.676;9.022;2022-12-07T02:52:40;3.93;;;2.23;;
10339;SDS011;5215;48.676;9.022;2022-12-07T02:55:07;3.23;;;2.63;;
10339;SDS011;5215;48.676;9.022;2022-12-07T02:57:38;4.30;;;2.83;;
10339;SDS011;5215;48.676;9.022;2022-12-07T03:00:08;2.87;;;2.17;;
10339;SDS011;5215;48.676;9.022;2022-12-07T03:02:38;3.73;;;2.40;;
10339;SDS011;5215;48.676;9.022;2022-12-07T03:05:13;3.87;;;2.13;;
10339;SDS011;5215;48.676;9.022;2022-12-07T03:07:43;3.27;;;2.63;;
10339;SDS011;5215;48.676;9.022;2022-12-07T03:10:14;2.97;;;2.47;;
10339;SDS011;5215;48.676;9.022;2022-12-07T03:12:44;3.27;;;2.00;;
10339;SDS011;5215;48.676;9.022;2022-12-07T03:15:12;2.57;;;2.37;;
10339;SDS011;5215;48.676;9.022;2022-12-07T03:17:39;3.63;;;2.33;;
10339;SDS011;5215;48.676;9.022;2022-12-07T03:20:07;3.70;;;2.07;;
10339;SDS011;5215;48.676;9.022;2022-12-07T03:22:37;4.20;;;2.03;;
10339;SDS011;5215;48.676;9.022;2022-12-07T03:25:04;3.23;;;2.07;;
10339;SDS011;5215;48.676;9.022;2022-12-07T03:27:32;2.43;;;2.23;;
10339;SDS011;5215;48.676;9.022;2022-12-07T03:30:00;2.70;;;2.07;;
10339;SDS011;5215;48.676;9.022;2022-12-07T03:32:28;3.30;;;2.07;;
10339;SDS011;5215;48.676;9.022;2022-12-07T03:34:56;2.83;;;2.27;;
10339;SDS011;5215;48.676;9.022;2022-12-07T03:37:25;4.47;;;2.43;;
10339;SDS011;5215;48.676;9.022;2022-12-07T03:39:56;2.73;;;2.23;;
10339;SDS011;5215;48.676;9.022;2022-12-07T03:42:23;3.63;;;2.30;;
10339;SDS011;5215;48.676;9.022;2022-12-07T03:44:50;2.70;;;2.47;;
10339;SDS011;5215;48.676;9.022;2022-12-07T03:47:18;4.57;;;2.47;;
10339;SDS011;5215;48.676;9.022;2022-12-07T03:49:48;3.27;;;2.97;;
10339;SDS011;5215;48.676;9.022;2022-12-07T03:52:18;3.53;;;2.30;;
10339;SDS011;5215;48.676;9.022;2022-12-07T03:54:47;4.17;;;2.57;;
10339;SDS011;5215;48.676;9.022;2022-12-07T03:57:17;5.73;;;2.40;;
10339;SDS011;5215;48.676;9.022;2022-12-07T03:59:43;2.30;;;2.10;;
10339;SDS011;5215;48.676;9.022;2022-12-07T04:02:11;3.47;;;2.70;;
10339;SDS011;5215;48.676;9.022;2022-12-07T04:04:38;3.33;;;2.10;;
10339;SDS011;5215;48.676;9.022;2022-12-07T04:07:04;4.60;;;2.77;;
10339;SDS011;5215;48.676;9.022;2022-12-07T04:09:31;4.10;;;2.30;;
10339;SDS011;5215;48.676;9.022;2022-12-07T04:11:57;3.17;;;1.97;;
10339;SDS011;5215;48.676;9.022;2022-12-07T04:14:25;2.57;;;2.10;;
10339;SDS011;5215;48.676;9.022;2022-12-07T04:16:52;2.70;;;2.47;;
10339;SDS011;5215;48.676;9.022;2022-12-07T04:19:19;4.40;;;2.13;;
10339;SDS011;5215;48.676;9.022;2022-12-07T04:21:46;3.07;;;2.10;;
10339;SDS011;5215;48.676;9.022;2022-12-07T04:24:12;3.37;;;2.17;;
10339;SDS011;5215;48.676;9.022;2022-12-07T04:26:39;5.33;;;2.43;;
10339;SDS011;5215;48.676;9.022;2022-12-07T04:29:05;2.67;;;2.03;;
10339;SDS011;5215;48.676;9.022;2022-12-07T04:31:33;4.33;;;2.77;;
10339;SDS011;5215;48.676;9.022;2022-12-07T04:33:59;2.87;;;1.90;;
10339;SDS011;5215;48.676;9.022;2022-12-07T04:36:26;3.67;;;2.13;;
10339;SDS011;5215;48.676;9.022;2022-12-07T04:38:52;3.33;;;2.17;;
10339;SDS011;5215;48.676;9.022;2022-12-07T04:41:19;2.77;;;2.03;;
10339;SDS011;5215;48.676;9.022;2022-12-07T04:43:51;3.47;;;2.60;;
10339;SDS011;5215;48.676;9.022;2022-12-07T04:46:18;4.27;;;2.30;;
10339;SDS011;5215;48.676;9.022;2022-12-07T04:48:45;4.57;;;2.23;;
10339;SDS011;5215;48.676;9.022;2022-12-07T04:51:12;2.43;;;2.03;;
10339;SDS011;5215;48.676;9.022;2022-12-07T04:53:38;2.70;;;1.87;;
10339;SDS011;5215;48.676;9.022;2022-12-07T04:56:05;2.50;;;2.30;;
10339;SDS011;5215;48.676;9.022;2022-12-07T04:58:31;4.67;;;2.77;;
10339;SDS011;5215;48.676;9.022;2022-12-07T05:00:57;4.50;;;2.67;;
10339;SDS011;5215;48.676;9.022;2022-12-07T05:03:24;3.73;;;2.47;;
10339;SDS011;5215;48.676;9.022;2022-12-07T05:05:51;2.20;;;1.80;;
10339;SDS011;5215;48.676;9.022;2022-12-07T05:08:18;1.93;;;1.67;;
10339;SDS011;5215;48.676;9.022;2022-12-07T05:10:44;4.00;;;2.47;;
10339;SDS011;5215;48.676;9.022;2022-12-07T05:13:10;8.03;;;2.30;;
10339;SDS011;5215;48.676;9.022;2022-12-07T05:15:36;3.77;;;2.47;;
10339;SDS011;5215;48.676;9.022;2022-12-07T05:18:03;4.10;;;2.60;;
10339;SDS011;5215;48.676;9.022;2022-12-07T05:20:29;2.50;;;2.07;;
10339;SDS011;5215;48.676;9.022;2022-12-07T05:22:57;2.60;;;1.97;;
10339;SDS011;5215;48.676;9.022;2022-12-07T05:25:23;2.27;;;2.03;;
10339;SDS011;5215;48.676;9.022;2022-12-07T05:27:50;2.43;;;1.83;;
10339;SDS011;5215;48.676;9.022;2022-12-07T05:30:16;2.97;;;2.30;;
10339;SDS011;5215;48.676;9.022;2022-12-07T05:32:43;3.57;;;2.17;;
10339;SDS011;5215;48.676;9.022;2022-12-07T05:35:09;3.73;;;2.50;;
10339;SDS011;5215;48.676;9.022;2022-12-07T05:37:35;2.83;;;1.83;;
10339;SDS011;5215;48.676;9.022;2022-12-07T05:40:04;3.20;;;2.30;;
10339;SDS011;5215;48.676;9.022;2022-12-07T05:42:31;3.10;;;2.07;;
10339;SDS011;5215;48.676;9.022;2022-12-07T05:44:57;2.73;;;1.90;;
10339;SDS011;5215;48.676;9.022;2022-12-07T05:47:23;3.07;;;2.00;;
10339;SDS011;5215;48.676;9.022;2022-12-07T05:49:49;2.17;;;1.93;;
10339;SDS011;5215;48.676;9.022;2022-12-07T05:52:16;2.53;;;1.90;;
10339;SDS011;5215;48.676;9.022;2022-12-07T05:54:42;1.53;;;1.43;;
10339;SDS011;5215;48.676;9.022;2022-12-07T05:57:10;2.13;;;1.93;;
10339;SDS011;5215;48.676;9.022;2022-12-07T05:59:36;2.63;;;1.90;;
10339;SDS011;5215;48.676;9.022;2022-12-07T06:02:02;2.80;;;1.83;;
10339;SDS011;5215;48.676;9.022;2022-12-07T06:04:30;1.50;;;1.20;;
10339;SDS011;5215;48.676;9.022;2022-12-07T06:06:57;3.33;;;2.27;;
10339;SDS011;5215;48.676;9.022;2022-12-07T06:09:23;3.53;;;1.93;;
10339;SDS011;5215;48.676;9.022;2022-12-07T06:11:50;2.30;;;1.73;;
10339;SDS011;5215;48.676;9.022;2022-12-07T06:14:36;2.50;;;1.73;;
10339;SDS011;5215;48.676;9.022;2022-12-07T06:17:02;3.23;;;2.13;;
10339;SDS011;5215;48.676;9.022;2022-12-07T06:19:28;2.83;;;2.20;;
10339;SDS011;5215;48.676;9.022;2022-12-07T06:21:55;2.93;;;2.23;;
10339;SDS011;5215;48.676;9.022;2022-12-07T06:24:21;4.23;;;2.37;;
10339;SDS011;5215;48.676;9.022;2022-12-07T06:26:47;3.40;;;2.23;;
10339;SDS011;5215;48.676;9.022;2022-12-07T06:29:14;4.17;;;2.27;;
10339;SDS011;5215;48.676;9.022;2022-12-07T06:31:42;5.13;;;2.40;;
10339;SDS011;5215;48.676;9.022;2022-12-07T06:34:09;4.10;;;2.37;;
10339;SDS011;5215;48.676;9.022;2022-12-07T06:36:35;2.47;;;2.20;;
10339;SDS011;5215;48.676;9.022;2022-12-07T06:39:02;3.00;;;2.27;;
10339;SDS011;5215;48.676;9.022;2022-12-07T06:41:29;3.00;;;2.33;;
10339;SDS011;5215;48.676;9.022;2022-12-07T06:43:55;2.73;;;2.03;;
10339;SDS011;5215;48.676;9.022;2022-12-07T06:46:21;3.70;;;2.67;;
10339;SDS011;5215;48.676;9.022;2022-12-07T06:48:50;2.93;;;2.20;;
10339;SDS011;5215;48.676;9.022;2022-12-07T06:51:16;3.40;;;2.63;;
10339;SDS011;5215;48.676;9.022;2022-12-07T06:53:42;3.57;;;2.67;;
10339;SDS011;5215;48.676;9.022;2022-12-07T06:56:08;4.07;;;2.40;;
10339;SDS011;5215;48.676;9.022;2022-12-07T06:58:35;3.07;;;2.10;;
10339;SDS011;5215;48.676;9.022;2022-12-07T07:01:02;3.70;;;2.10;;
10339;SDS011;5215;48.676;9.022;2022-12-07T07:03:28;5.67;;;3.03;;
10339;SDS011;5215;48.676;9.022;2022-12-07T07:05:56;4.40;;;2.60;;
10339;SDS011;5215;48.676;9.022;2022-12-07T07:08:22;4.20;;;2.83;;
10339;SDS011;5215;48.676;9.022;2022-12-07T07:10:49;4.77;;;2.80;;
10339;SDS011;5215;48.676;9.022;2022-12-07T07:13:15;3.47;;;2.10;;
10339;SDS011;5215;48.676;9.022;2022-12-07T07:15:42;3.87;;;2.30;;
10339;SDS011;5215;48.676;9.022;2022-12-07T07:18:08;2.93;;;2.20;;
10339;SDS011;5215;48.676;9.022;2022-12-07T07:20:35;2.87;;;2.23;;
10339;SDS011;5215;48.676;9.022;2022-12-07T07:23:02;3.53;;;2.67;;
10339;SDS011;5215;48.676;9.022;2022-12-07T07:25:29;1.50;;;1.10;;
10339;SDS011;5215;48.676;9.022;2022-12-07T07:27:55;1.50;;;1.40;;
10339;SDS011;5215;48.676;9.022;2022-12-07T07:30:21;1.53;;;0.87;;
10339;SDS011;5215;48.676;9.022;2022-12-07T07:32:48;3.33;;;1.83;;
10339;SDS011;5215;48.676;9.022;2022-12-07T07:35:14;2.43;;;1.80;;
10339;SDS011;5215;48.676;9.022;2022-12-07T07:37:41;1.20;;;1.13;;
10339;SDS011;5215;48.676;9.022;2022-12-07T07:40:09;4.00;;;2.53;;
10339;SDS011;5215;48.676;9.022;2022-12-07T07:42:36;5.77;;;2.30;;
10339;SDS011;5215;48.676;9.022;2022-12-07T07:45:02;3.60;;;2.63;;
10339;SDS011;5215;48.676;9.022;2022-12-07T07:47:29;1.57;;;1.30;;
10339;SDS011;5215;48.676;9.022;2022-12-07T07:49:55;1.13;;;1.00;;
10339;SDS011;5215;48.676;9.022;2022-12-07T07:52:22;1.03;;;1.03;;
10339;SDS011;5215;48.676;9.022;2022-12-07T07:54:48;1.30;;;1.07;;
10339;SDS011;5215;48.676;9.022;2022-12-07T07:57:17;1.53;;;1.43;;
10339;SDS011;5215;48.676;9.022;2022-12-07T07:59:43;1.50;;;0.87;;
10339;SDS011;5215;48.676;9.022;2022-12-07T08:02:10;1.77;;;1.00;;
10339;SDS011;5215;48.676;9.022;2022-12-07T08:04:39;1.53;;;1.07;;
10339;SDS011;5215;48.676;9.022;2022-12-07T08:07:05;0.90;;;0.77;;
10339;SDS011;5215;48.676;9.022;2022-12-07T08:09:32;1.60;;;1.50;;
10339;SDS011;5215;48.676;9.022;2022-12-07T08:11:58;0.93;;;0.80;;
10339;SDS011;5215;48.676;9.022;2022-12-07T08:14:26;0.97;;;0.87;;
10339;SDS011;5215;48.676;9.022;2022-12-07T08:16:53;0.60;;;0.60;;
10339;SDS011;5215;48.676;9.022;2022-12-07T08:19:20;1.80;;;1.37;;
10339;SDS011;5215;48.676;9.022;2022-12-07T08:21:46;2.43;;;1.17;;
10339;SDS011;5215;48.676;9.022;2022-12-07T08:24:12;0.80;;;0.80;;
10339;SDS011;5215;48.676;9.022;2022-12-07T08:26:39;2.30;;;1.27;;
10339;SDS011;5215;48.676;9.022;2022-12-07T08:29:05;2.00;;;1.23;;
10339;SDS011;5215;48.676;9.022;2022-12-07T08:31:33;1.83;;;1.03;;
10339;SDS011;5215;48.676;9.022;2022-12-07T08:33:59;0.70;;;0.70;;
10339;SDS011;5215;48.676;9.022;2022-12-07T08:36:25;0.97;;;0.97;;
10339;SDS011;5215;48.676;9.022;2022-12-07T08:38:52;1.77;;;0.63;;
10339;SDS011;5215;48.676;9.022;2022-12-07T08:41:18;0.90;;;0.90;;
10339;SDS011;5215;48.676;9.022;2022-12-07T08:43:45;1.47;;;1.33;;
10339;SDS011;5215;48.676;9.022;2022-12-07T08:46:12;2.50;;;1.40;;
10339;SDS011;5215;48.676;9.022;2022-12-07T08:48:42;2.30;;;1.93;;
10339;SDS011;5215;48.676;9.022;2022-12-07T08:51:10;1.77;;;1.63;;
10339;SDS011;5215;48.676;9.022;2022-12-07T08:53:37;2.13;;;1.90;;
10339;SDS011;5215;48.676;9.022;2022-12-07T08:56:04;1.73;;;1.17;;
10339;SDS011;5215;48.676;9.022;2022-12-07T08:58:31;3.03;;;1.50;;
10339;SDS011;5215;48.676;9.022;2022-12-07T09:00:58;2.63;;;2.03;;
10339;SDS011;5215;48.676;9.022;2022-12-07T09:03:24;3.13;;;2.10;;
10339;SDS011;5215;48.676;9.022;2022-12-07T09:05:53;2.43;;;1.33;;
10339;SDS011;5215;48.676;9.022;2022-12-07T09:08:19;2.47;;;1.70;;
10339;SDS011;5215;48.676;9.022;2022-12-07T09:10:46;2.20;;;1.77;;
10339;SDS011;5215;48.676;9.022;2022-12-07T09:13:13;1.83;;;1.63;;
10339;SDS011;5215;48.676;9.022;2022-12-07T09:15:39;1.87;;;1.67;;
10339;SDS011;5215;48.676;9.022;2022-12-07T09:18:06;3.17;;;1.60;;
10339;SDS011;5215;48.676;9.022;2022-12-07T09:20:32;1.50;;;1.13;;
10339;SDS011;5215;48.676;9.022;2022-12-07T09:23:00;2.90;;;2.33;;
10339;SDS011;5215;48.676;9.022;2022-12-07T09:25:26;1.70;;;1.53;;
10339;SDS011;5215;48.676;9.022;2022-12-07T09:27:56;2.53;;;2.03;;
10339;SDS011;5215;48.676;9.022;2022-12-07T09:30:23;2.33;;;1.60;;
10339;SDS011;5215;48.676;9.022;2022-12-07T09:32:49;1.60;;;1.50;;
10339;SDS011;5215;48.676;9.022;2022-12-07T09:35:15;3.10;;;1.97;;
10339;SDS011;5215;48.676;9.022;2022-12-07T09:37:42;2.53;;;1.77;;
10339;SDS011;5215;48.676;9.022;2022-12-07T09:40:10;1.90;;;1.67;;
10339;SDS011;5215;48.676;9.022;2022-12-07T09:42:37;2.80;;;1.27;;
10339;SDS011;5215;48.676;9.022;2022-12-07T09:45:05;2.13;;;1.80;;
10339;SDS011;5215;48.676;9.022;2022-12-07T09:47:31;2.20;;;1.40;;
10339;SDS011;5215;48.676;9.022;2022-12-07T09:50:00;2.27;;;2.07;;
10339;SDS011;5215;48.676;9.022;2022-12-07T09:52:29;3.40;;;2.33;;
10339;SDS011;5215;48.676;9.022;2022-12-07T09:54:55;2.93;;;1.70;;
10339;SDS011;5215;48.676;9.022;2022-12-07T09:57:25;4.23;;;1.83;;
10339;SDS011;5215;48.676;9.022;2022-12-07T09:59:53;2.10;;;1.23;;
10339;SDS011;5215;48.676;9.022;2022-12-07T10:02:23;2.20;;;1.50;;
10339;SDS011;5215;48.676;9.022;2022-12-07T10:04:50;1.60;;;1.27;;
10339;SDS011;5215;48.676;9.022;2022-12-07T10:07:17;2.90;;;1.77;;
10339;SDS011;5215;48.676;9.022;2022-12-07T10:09:44;4.40;;;1.67;;
10339;SDS011;5215;48.676;9.022;2022-12-07T10:12:11;2.17;;;1.23;;
10339;SDS011;5215;48.676;9.022;2022-12-07T10:14:40;3.13;;;1.80;;
10339;SDS011;5215;48.676;9.022;2022-12-07T10:17:27;3.77;;;2.23;;
10339;SDS011;5215;48.676;9.022;2022-12-07T10:20:02;2.33;;;1.63;;
10339;SDS011;5215;48.676;9.022;2022-12-07T10:22:34;1.30;;;1.13;;
10339;SDS011;5215;48.676;9.022;2022-12-07T10:25:15;2.83;;;1.83;;
10339;SDS011;5215;48.676;9.022;2022-12-07T10:27:44;4.70;;;2.80;;
10339;SDS011;5215;48.676;9.022;2022-12-07T10:30:24;1.87;;;1.73;;
10339;SDS011;5215;48.676;9.022;2022-12-07T10:32:50;1.77;;;1.30;;
10339;SDS011;5215;48.676;9.022;2022-12-07T10:35:18;1.20;;;1.20;;
10339;SDS011;5215;48.676;9.022;2022-12-07T10:37:45;1.10;;;1.00;;
10339;SDS011;5215;48.676;9.022;2022-12-07T10:40:23;1.17;;;1.07;;
10339;SDS011;5215;48.676;9.022;2022-12-07T10:42:59;1.73;;;1.37;;
10339;SDS011;5215;48.676;9.022;2022-12-07T10:45:27;0.47;;;0.47;;
10339;SDS011;5215;48.676;9.022;2022-12-07T10:47:55;1.57;;;1.47;;
10339;SDS011;5215;48.676;9.022;2022-12-07T10:50:37;0.30;;;0.30;;
10339;SDS011;5215;48.676;9.022;2022-12-07T10:53:26;0.60;;;0.50;;
10339;SDS011;5215;48.676;9.022;2022-12-07T10:55:56;0.50;;;0.50;;
10339;SDS011;5215;48.676;9.022;2022-12-07T10:58:31;0.70;;;0.70;;
10339;SDS011;5215;48.676;9.022;2022-12-07T11:01:04;1.20;;;0.73;;
10339;SDS011;5215;48.676;9.022;2022-12-07T11:03:45;0.63;;;0.63;;
10339;SDS011;5215;48.676;9.022;2022-12-07T11:06:17;0.50;;;0.50;;
10339;SDS011;5215;48.676;9.022;2022-12-07T11:08:50;0.53;;;0.53;;
10339;SDS011;5215;48.676;9.022;2022-12-07T11:11:19;2.07;;;0.93;;
10339;SDS011;5215;48.676;9.022;2022-12-07T11:13:51;2.43;;;0.97;;
10339;SDS011;5215;48.676;9.022;2022-12-07T11:16:21;0.67;;;0.67;;
10339;SDS011;5215;48.676;9.022;2022-12-07T11:18:52;3.13;;;1.47;;
10339;SDS011;5215;48.676;9.022;2022-12-07T11:21:24;1.37;;;1.20;;
10339;SDS011;5215;48.676;9.022;2022-12-07T11:23:53;1.70;;;1.00;;
10339;SDS011;5215;48.676;9.022;2022-12-07T11:26:26;1.70;;;0.90;;
10339;SDS011;5215;48.676;9.022;2022-12-07T11:29:06;1.77;;;1.23;;
10339;SDS011;5215;48.676;9.022;2022-12-07T11:31:41;1.07;;;0.97;;
10339;SDS011;5215;48.676;9.022;2022-12-07T11:34:12;0.50;;;0.50;;
10339;SDS011;5215;48.676;9.022;2022-12-07T11:36:43;0.40;;;0.40;;
10339;SDS011;5215;48.676;9.022;2022-12-07T11:39:12;1.00;;;0.50;;
10339;SDS011;5215;48.676;9.022;2022-12-07T11:41:41;0.50;;;0.43;;
10339;SDS011;5215;48.676;9.022;2022-12-07T11:44:13;0.87;;;0.87;;
10339;SDS011;5215;48.676;9.022;2022-12-07T11:46:47;1.80;;;0.80;;
10339;SDS011;5215;48.676;9.022;2022-12-07T11:49:19;0.70;;;0.70;;
10339;SDS011;5215;48.676;9.022;2022-12-07T11:51:46;0.97;;;0.97;;
10339;SDS011;5215;48.676;9.022;2022-12-07T11:54:16;0.50;;;0.50;;
10339;SDS011;5215;48.676;9.022;2022-12-07T11:56:43;1.23;;;1.13;;
10339;SDS011;5215;48.676;9.022;2022-12-07T11:59:11;0.50;;;0.50;;
10339;SDS011;5215;48.676;9.022;2022-12-07T12:01:42;1.83;;;0.50;;
10339;SDS011;5215;48.676;9.022;2022-12-07T12:04:16;1.17;;;0.73;;
10339;SDS011;5215;48.676;9.022;2022-12-07T12:06:45;2.17;;;0.80;;
10339;SDS011;5215;48.676;9.022;2022-12-07T12:09:11;0.50;;;0.50;;
10339;SDS011;5215;48.676;9.022;2022-12-07T12:11:43;0.63;;;0.63;;
10339;SDS011;5215;48.676;9.022;2022-12-07T12:14:26;0.43;;;0.43;;
10339;SDS011;5215;48.676;9.022;2022-12-07T12:17:01;0.80;;;0.60;;
10339;SDS011;5215;48.676;9.022;2022-12-07T12:19:34;0.57;;;0.57;;
10339;SDS011;5215;48.676;9.022;2022-12-07T12:22:03;1.13;;;0.90;;
10339;SDS011;5215;48.676;9.022;2022-12-07T12:24:31;0.40;;;0.40;;
10339;SDS011;5215;48.676;9.022;2022-12-07T12:27:02;0.50;;;0.50;;
10339;SDS011;5215;48.676;9.022;2022-12-07T12:29:31;0.80;;;0.80;;
10339;SDS011;5215;48.676;9.022;2022-12-07T12:32:12;0.63;;;0.63;;
10339;SDS011;5215;48.676;9.022;2022-12-07T12:34:41;0.80;;;0.50;;
10339;SDS011;5215;48.676;9.022;2022-12-07T12:42:42;0.40;;;0.40;;
10339;SDS011;5215;48.676;9.022;2022-12-07T12:45:17;0.63;;;0.63;;
10339;SDS011;5215;48.676;9.022;2022-12-07T12:47:52;2.00;;;1.23;;
10339;SDS011;5215;48.676;9.022;2022-12-07T12:50:21;0.50;;;0.50;;
10339;SDS011;5215;48.676;9.022;2022-12-07T12:52:52;0.50;;;0.50;;
10339;SDS011;5215;48.676;9.022;2022-12-07T12:55:20;1.20;;;0.93;;
10339;SDS011;5215;48.676;9.022;2022-12-07T13:00:37;1.03;;;0.67;;
10339;SDS011;5215;48.676;9.022;2022-12-07T13:03:04;0.70;;;0.50;;
10339;SDS011;5215;48.676;9.022;2022-12-07T13:05:32;0.30;;;0.30;;
10339;SDS011;5215;48.676;9.022;2022-12-07T13:07:59;0.90;;;0.90;;
10339;SDS011;5215;48.676;9.022;2022-12-07T13:10:33;0.53;;;0.47;;
10339;SDS011;5215;48.676;9.022;2022-12-07T13:13:01;0.30;;;0.30;;
10339;SDS011;5215;48.676;9.022;2022-12-07T13:15:32;1.03;;;0.83;;
10339;SDS011;5215;48.676;9.022;2022-12-07T13:17:59;0.77;;;0.70;;
10339;SDS011;5215;48.676;9.022;2022-12-07T13:23:26;0.50;;;0.50;;
10339;SDS011;5215;48.676;9.022;2022-12-07T13:25:55;1.40;;;0.80;;
10339;SDS011;5215;48.676;9.022;2022-12-07T13:28:22;1.10;;;0.80;;
10339;SDS011;5215;48.676;9.022;2022-12-07T13:31:00;0.30;;;0.30;;
10339;SDS011;5215;48.676;9.022;2022-12-07T13:33:28;1.00;;;1.00;;
10339;SDS011;5215;48.676;9.022;2022-12-07T13:35:55;0.30;;;0.30;;
10339;SDS011;5215;48.676;9.022;2022-12-07T13:38:23;1.00;;;1.00;;
10339;SDS011;5215;48.676;9.022;2022-12-07T13:41:03;1.83;;;0.57;;
10339;SDS011;5215;48.676;9.022;2022-12-07T13:43:30;0.50;;;0.50;;
10339;SDS011;5215;48.676;9.022;2022-12-07T13:45:57;0.30;;;0.30;;
10339;SDS011;5215;48.676;9.022;2022-12-07T13:48:25;1.07;;;0.70;;
10339;SDS011;5215;48.676;9.022;2022-12-07T13:50:54;0.87;;;0.87;;
10339;SDS011;5215;48.676;9.022;2022-12-07T13:53:21;0.70;;;0.70;;
10339;SDS011;5215;48.676;9.022;2022-12-07T13:55:47;0.30;;;0.30;;
10339;SDS011;5215;48.676;9.022;2022-12-07T13:58:15;0.77;;;0.70;;
10339;SDS011;5215;48.676;9.022;2022-12-07T14:00:42;0.43;;;0.43;;
10339;SDS011;5215;48.676;9.022;2022-12-07T14:03:31;2.30;;;0.60;;
10339;SDS011;5215;48.676;9.022;2022-12-07T14:06:06;0.67;;;0.67;;
10339;SDS011;5215;48.676;9.022;2022-12-07T14:08:33;0.70;;;0.70;;
10339;SDS011;5215;48.676;9.022;2022-12-07T14:11:00;2.07;;;0.60;;
10339;SDS011;5215;48.676;9.022;2022-12-07T14:13:31;1.50;;;1.00;;
10339;SDS011;5215;48.676;9.022;2022-12-07T14:15:59;0.40;;;0.40;;
10339;SDS011;5215;48.676;9.022;2022-12-07T14:18:26;0.63;;;0.63;;
10339;SDS011;5215;48.676;9.022;2022-12-07T14:21:02;0.50;;;0.50;;
10339;SDS011;5215;48.676;9.022;2022-12-07T14:23:28;0.70;;;0.27;;
10339;SDS011;5215;48.676;9.022;2022-12-07T14:26:04;0.40;;;0.40;;
10339;SDS011;5215;48.676;9.022;2022-12-07T14:28:35;2.60;;;0.87;;
10339;SDS011;5215;48.676;9.022;2022-12-07T14:31:07;1.33;;;1.23;;
10339;SDS011;5215;48.676;9.022;2022-12-07T14:33:34;2.43;;;0.80;;
10339;SDS011;5215;48.676;9.022;2022-12-07T14:36:01;1.63;;;1.30;;
10339;SDS011;5215;48.676;9.022;2022-12-07T14:38:27;0.50;;;0.50;;
10339;SDS011;5215;48.676;9.022;2022-12-07T14:40:53;0.53;;;0.53;;
10339;SDS011;5215;48.676;9.022;2022-12-07T14:43:42;1.57;;;0.57;;
10339;SDS011;5215;48.676;9.022;2022-12-07T14:46:08;0.77;;;0.53;;
10339;SDS011;5215;48.676;9.022;2022-12-07T14:48:35;1.03;;;0.60;;
10339;SDS011;5215;48.676;9.022;2022-12-07T14:51:01;0.70;;;0.70;;
10339;SDS011;5215;48.676;9.022;2022-12-07T14:53:29;1.33;;;0.50;;
10339;SDS011;5215;48.676;9.022;2022-12-07T14:55:56;0.30;;;0.30;;
10339;SDS011;5215;48.676;9.022;2022-12-07T14:58:22;0.67;;;0.67;;
10339;SDS011;5215;48.676;9.022;2022-12-07T15:00:50;0.57;;;0.57;;
10339;SDS011;5215;48.676;9.022;2022-12-07T15:03:16;1.20;;;0.67;;
10339;SDS011;5215;48.676;9.022;2022-12-07T15:05:43;1.13;;;0.47;;
10339;SDS011;5215;48.676;9.022;2022-12-07T15:08:10;1.30;;;0.63;;
10339;SDS011;5215;48.676;9.022;2022-12-07T15:10:37;0.83;;;0.60;;
10339;SDS011;5215;48.676;9.022;2022-12-07T15:13:05;2.77;;;1.60;;
10339;SDS011;5215;48.676;9.022;2022-12-07T15:15:51;2.40;;;2.20;;
10339;SDS011;5215;48.676;9.022;2022-12-07T15:18:17;2.43;;;1.67;;
10339;SDS011;5215;48.676;9.022;2022-12-07T15:20:44;1.17;;;1.07;;